createdAt,value
2023-04-03T00:03:35.870Z,101457.05
2023-04-03T00:06:06.746Z,101453.20
2023-04-03T00:08:37.224Z,101448.73
2023-04-03T00:11:07.438Z,101455.48
2023-04-03T00:13:35.719Z,101454.59
2023-04-03T00:16:05.426Z,101460.29
2023-04-03T00:18:33.557Z,101459.38
2023-04-03T00:21:02.273Z,101460.95
2023-04-03T00:23:30.773Z,101457.15
2023-04-03T00:25:58.979Z,101456.95
2023-04-03T00:28:28.401Z,101455.17
2023-04-03T00:30:57.370Z,101453.05
2023-04-03T00:33:26.584Z,101451.05
2023-04-03T00:35:55.742Z,101445.33
2023-04-03T00:38:24.430Z,101442.51
2023-04-03T00:40:52.838Z,101438.06
2023-04-03T00:43:25.664Z,101439.29
2023-04-03T00:45:57.080Z,101439.45
2023-04-03T00:48:37.454Z,101436.23
2023-04-03T00:51:09.183Z,101434.10
2023-04-03T00:53:58.166Z,101432.50
2023-04-03T00:56:29.861Z,101436.06
2023-04-03T00:59:06.223Z,101433.55
2023-04-03T01:01:36.527Z,101427.63
2023-04-03T01:04:06.189Z,101430.09
2023-04-03T01:06:37.780Z,101429.33
2023-04-03T01:09:07.332Z,101418.80
2023-04-03T01:11:35.773Z,101415.19
2023-04-03T01:14:04.083Z,101407.31
2023-04-03T01:16:33.524Z,101402.84
2023-04-03T01:19:03.048Z,101390.88
2023-04-03T01:22:04.526Z,101389.05
2023-04-03T01:24:34.347Z,101387.02
2023-04-03T01:27:05.898Z,101388.17
2023-04-03T01:29:34.951Z,101387.92
2023-04-03T01:32:04.813Z,101389.84
2023-04-03T01:34:33.337Z,101386.45
2023-04-03T01:37:01.979Z,101383.77
2023-04-03T01:39:30.615Z,101381.82
2023-04-03T01:41:59.299Z,101380.38
2023-04-03T01:44:28.424Z,101380.15
2023-04-03T01:46:57.062Z,101369.48
2023-04-03T01:49:25.452Z,101367.65
2023-04-03T01:51:54.245Z,101362.11
2023-04-03T01:54:22.341Z,101361.88
2023-04-03T01:56:51.108Z,101360.92
2023-04-03T01:59:19.952Z,101361.61
2023-04-03T02:01:49.446Z,101358.37
2023-04-03T02:04:18.000Z,101358.73
2023-04-03T02:06:47.216Z,101350.73
2023-04-03T02:09:16.132Z,101344.87
2023-04-03T02:11:44.594Z,101349.67
2023-04-03T02:14:13.249Z,101343.98
2023-04-03T02:16:41.479Z,101338.45
2023-04-03T02:19:10.036Z,101337.16
2023-04-03T02:21:39.167Z,101334.10
2023-04-03T02:24:08.009Z,101330.67
2023-04-03T02:26:36.242Z,101327.26
2023-04-03T02:29:04.512Z,101327.75
2023-04-03T02:31:32.964Z,101325.77
2023-04-03T02:34:02.965Z,101323.92
2023-04-03T02:36:32.979Z,101328.35
2023-04-03T02:39:01.284Z,101325.65
2023-04-03T02:41:29.383Z,101324.35
2023-04-03T02:43:57.728Z,101318.45
2023-04-03T02:46:26.652Z,101314.68
2023-04-03T02:48:55.644Z,101313.02
2023-04-03T02:51:24.687Z,101311.36
2023-04-03T02:53:53.349Z,101311.50
2023-04-03T02:56:21.942Z,101308.80
2023-04-03T02:58:51.372Z,101311.77
2023-04-03T03:01:20.471Z,101310.48
2023-04-03T03:03:48.834Z,101316.52
2023-04-03T03:06:18.215Z,101319.88
2023-04-03T03:08:47.020Z,101314.35
2023-04-03T03:11:16.401Z,101308.83
2023-04-03T03:13:45.832Z,101311.09
2023-04-03T03:16:14.890Z,101307.35
2023-04-03T03:18:43.613Z,101305.52
2023-04-03T03:21:12.457Z,101302.63
2023-04-03T03:23:40.927Z,101302.02
2023-04-03T03:26:11.992Z,101297.33
2023-04-03T03:28:40.919Z,101297.11
2023-04-03T03:31:10.666Z,101291.23
2023-04-03T03:33:39.701Z,101289.56
2023-04-03T03:36:08.770Z,101287.90
2023-04-03T03:38:38.933Z,101288.73
2023-04-03T03:41:07.663Z,101292.58
2023-04-03T03:43:36.545Z,101292.20
2023-04-03T03:46:05.791Z,101288.30
2023-04-03T03:48:34.147Z,101283.27
2023-04-03T03:51:02.439Z,101288.19
2023-04-03T03:53:32.324Z,101284.77
2023-04-03T03:56:00.951Z,101291.30
2023-04-03T03:58:29.101Z,101286.15
2023-04-03T04:00:57.813Z,101289.52
2023-04-03T04:03:27.440Z,101290.59
2023-04-03T04:05:57.048Z,101289.31
2023-04-03T04:08:25.963Z,101289.48
2023-04-03T04:10:54.820Z,101293.73
2023-04-03T04:13:23.921Z,101290.70
2023-04-03T04:15:52.075Z,101292.82
2023-04-03T04:18:20.169Z,101294.39
2023-04-03T04:20:48.543Z,101300.05
2023-04-03T04:23:18.851Z,101300.58
2023-04-03T04:25:49.202Z,101302.84
2023-04-03T04:28:17.781Z,101302.42
2023-04-03T04:30:46.425Z,101302.56
2023-04-03T04:33:14.684Z,101306.83
2023-04-03T04:35:44.214Z,101299.86
2023-04-03T04:38:14.806Z,101300.57
2023-04-03T04:40:43.124Z,101299.14
2023-04-03T04:43:11.823Z,101299.27
2023-04-03T04:45:40.142Z,101301.20
2023-04-03T04:48:09.534Z,101298.69
2023-04-03T04:50:37.910Z,101302.71
2023-04-03T04:53:06.073Z,101297.70
2023-04-03T04:55:35.098Z,101298.73
2023-04-03T04:58:03.434Z,101297.61
2023-04-03T05:00:32.040Z,101299.14
2023-04-03T05:03:00.540Z,101301.39
2023-04-03T05:05:29.619Z,101305.23
2023-04-03T05:07:57.830Z,101308.38
2023-04-03T05:10:26.401Z,101304.98
2023-04-03T05:12:54.703Z,101299.64
2023-04-03T05:15:22.858Z,101300.64
2023-04-03T05:17:51.209Z,101300.59
2023-04-03T05:20:19.387Z,101298.60
2023-04-03T05:22:47.676Z,101301.41
2023-04-03T05:25:16.516Z,101301.20
2023-04-03T05:27:45.313Z,101302.77
2023-04-03T05:30:14.635Z,101295.70
2023-04-03T05:32:43.389Z,101293.58
2023-04-03T05:35:12.579Z,101292.83
2023-04-03T05:37:41.464Z,101290.86
2023-04-03T05:40:11.245Z,101291.38
2023-04-03T05:42:39.754Z,101289.40
2023-04-03T05:45:08.708Z,101290.61
2023-04-03T05:47:37.200Z,101291.33
2023-04-03T05:50:06.216Z,101292.38
2023-04-03T05:52:41.406Z,101293.98
2023-04-03T05:55:09.922Z,101295.57
2023-04-03T05:57:38.277Z,101301.61
2023-04-03T06:00:09.080Z,101302.50
2023-04-03T06:02:37.674Z,101306.59
2023-04-03T06:05:07.178Z,101313.38
2023-04-03T06:07:35.951Z,101313.61
2023-04-03T06:10:04.629Z,101314.15
2023-04-03T06:12:35.360Z,101318.61
2023-04-03T06:15:04.436Z,101319.69
2023-04-03T06:17:32.650Z,101320.73
2023-04-03T06:20:02.058Z,101323.95
2023-04-03T06:22:30.632Z,101323.11
2023-04-03T06:24:59.428Z,101322.89
2023-04-03T06:27:27.642Z,101324.14
2023-04-03T06:29:56.331Z,101326.73
2023-04-03T06:32:24.786Z,101329.02
2023-04-03T06:34:53.086Z,101324.85
2023-04-03T06:37:24.385Z,101323.18
2023-04-03T06:39:53.169Z,101323.80
2023-04-03T06:42:21.458Z,101329.10
2023-04-03T06:44:51.429Z,101329.70
2023-04-03T06:47:20.264Z,101331.09
2023-04-03T06:49:48.738Z,101333.63
2023-04-03T06:52:16.999Z,101332.85
2023-04-03T06:54:45.151Z,101329.36
2023-04-03T06:57:13.305Z,101328.72
2023-04-03T06:59:41.895Z,101332.86
2023-04-03T07:02:12.829Z,101335.02
2023-04-03T07:04:41.259Z,101334.80
2023-04-03T07:07:09.583Z,101330.85
2023-04-03T07:09:37.831Z,101334.67
2023-04-03T07:12:07.101Z,101330.71
2023-04-03T07:14:35.514Z,101336.77
2023-04-03T07:17:03.711Z,101332.42
2023-04-03T07:19:31.993Z,101332.88
2023-04-03T07:22:00.377Z,101335.20
2023-04-03T07:24:28.596Z,101334.60
2023-04-03T07:26:56.937Z,101332.58
2023-04-03T07:29:25.416Z,101331.71
2023-04-03T07:31:54.154Z,101335.27
2023-04-03T07:34:22.764Z,101337.35
2023-04-03T07:36:51.253Z,101335.86
2023-04-03T07:39:19.414Z,101340.02
2023-04-03T07:41:48.525Z,101338.30
2023-04-03T07:44:16.768Z,101338.70
2023-04-03T07:46:45.258Z,101342.00
2023-04-03T07:49:13.814Z,101342.02
2023-04-03T07:51:42.163Z,101344.16
2023-04-03T07:54:10.273Z,101340.06
2023-04-03T07:56:38.371Z,101344.30
2023-04-03T07:59:06.755Z,101350.51
2023-04-03T08:01:34.962Z,101349.23
2023-04-03T08:04:03.255Z,101355.02
2023-04-03T08:06:44.803Z,101354.01
2023-04-03T08:09:16.741Z,101348.29
2023-04-03T08:11:45.216Z,101342.85
2023-04-03T08:14:14.405Z,101341.35
2023-04-03T08:16:44.293Z,101346.27
2023-04-03T08:19:22.416Z,101349.39
2023-04-03T08:21:55.535Z,101346.58
2023-04-03T08:24:24.456Z,101344.60
2023-04-03T08:26:52.669Z,101343.98
2023-04-03T08:29:20.928Z,101341.04
2023-04-03T08:31:50.970Z,101337.23
2023-04-03T08:34:21.225Z,101334.50
2023-04-03T08:36:49.437Z,101333.50
2023-04-03T08:39:18.088Z,101336.38
2023-04-03T08:41:47.620Z,101329.70
2023-04-03T08:44:48.334Z,101333.13
2023-04-03T08:47:29.812Z,101328.91
2023-04-03T08:50:05.441Z,101327.41
2023-04-03T08:52:50.141Z,101326.66
2023-04-03T08:55:33.106Z,101332.21
2023-04-03T08:58:04.126Z,101326.09
2023-04-03T09:01:00.418Z,101326.34
2023-04-03T09:03:32.554Z,101321.85
2023-04-03T09:06:31.722Z,101319.18
2023-04-03T09:09:17.865Z,101322.11
2023-04-03T09:12:11.108Z,101325.35
2023-04-03T09:15:10.711Z,101320.31
2023-04-03T09:18:00.298Z,101325.42
2023-04-03T09:20:32.036Z,101328.69
2023-04-03T09:23:00.264Z,101326.65
2023-04-03T09:25:32.940Z,101324.40
2023-04-03T09:28:02.349Z,101320.94
2023-04-03T09:30:31.179Z,101319.61
2023-04-03T09:32:59.592Z,101324.40
2023-04-03T09:35:44.931Z,101318.63
2023-04-03T09:38:23.529Z,101318.88
2023-04-03T09:41:07.639Z,101321.80
2023-04-03T09:43:38.860Z,101321.40
2023-04-03T09:46:33.113Z,101321.63
2023-04-03T09:49:12.079Z,101310.97
2023-04-03T09:51:41.814Z,101308.52
2023-04-03T09:54:35.179Z,101311.52
2023-04-03T09:57:09.432Z,101309.40
2023-04-03T09:59:44.776Z,101302.36
2023-04-03T10:02:13.372Z,101301.27
2023-04-03T10:04:43.056Z,101296.48
2023-04-03T10:07:31.692Z,101295.39
2023-04-03T10:10:03.779Z,101293.66
2023-04-03T10:12:32.237Z,101287.39
2023-04-03T10:15:02.106Z,101287.16
2023-04-03T10:17:52.619Z,101285.55
2023-04-03T10:20:40.961Z,101284.16
2023-04-03T10:23:24.794Z,101278.88
2023-04-03T10:26:25.084Z,101274.59
2023-04-03T10:29:15.463Z,101269.25
2023-04-03T10:31:55.284Z,101271.48
2023-04-03T10:34:33.386Z,101268.76
2023-04-03T10:37:19.528Z,101261.73
2023-04-03T10:40:23.104Z,101257.91
2023-04-03T10:43:05.909Z,101257.65
2023-04-03T10:46:06.265Z,101255.38
2023-04-03T10:48:50.268Z,101243.23
2023-04-03T10:51:41.033Z,101243.17
2023-04-03T10:54:20.165Z,101245.56
2023-04-03T10:57:12.565Z,101241.52
2023-04-03T11:00:04.860Z,101242.15
2023-04-03T11:02:39.589Z,101237.63
2023-04-03T11:05:32.820Z,101232.01
2023-04-03T11:08:09.684Z,101227.73
2023-04-03T11:10:45.782Z,101230.19
2023-04-03T11:13:52.375Z,101230.92
2023-04-03T11:16:26.314Z,101221.48
2023-04-03T11:19:05.093Z,101208.95
2023-04-03T11:21:40.706Z,101214.39
2023-04-03T11:24:23.704Z,101215.27
2023-04-03T11:26:54.923Z,101212.04
2023-04-03T11:29:35.475Z,101210.46
2023-04-03T11:32:39.650Z,101206.38
2023-04-03T11:35:10.182Z,101207.61
2023-04-03T11:37:47.110Z,101210.55
2023-04-03T11:40:26.369Z,101207.45
2023-04-03T11:43:05.549Z,101208.13
2023-04-03T11:45:51.579Z,101203.52
2023-04-03T11:48:24.773Z,101205.79
2023-04-03T11:50:54.428Z,101202.70
2023-04-03T11:53:33.271Z,101204.98
2023-04-03T11:56:25.855Z,101207.08
2023-04-03T11:59:23.268Z,101202.36
2023-04-03T12:01:59.424Z,101198.88
2023-04-03T12:04:29.041Z,101192.75
2023-04-03T12:07:19.600Z,101186.57
2023-04-03T12:09:47.769Z,101190.85
2023-04-03T12:12:37.047Z,101189.30
2023-04-03T12:15:22.728Z,101180.89
2023-04-03T12:17:52.169Z,101180.88
2023-04-03T12:20:59.397Z,101180.77
2023-04-03T12:23:36.407Z,101176.11
2023-04-03T12:26:32.387Z,101170.80
2023-04-03T12:29:25.351Z,101166.72
2023-04-03T12:32:25.726Z,101171.85
2023-04-03T12:35:03.505Z,101169.84
2023-04-03T12:37:32.152Z,101168.72
2023-04-03T12:40:26.395Z,101167.52
2023-04-03T12:43:49.490Z,101161.34
2023-04-03T12:46:22.198Z,101154.23
2023-04-03T12:48:59.375Z,101153.17
2023-04-03T12:51:48.012Z,101145.17
2023-04-03T12:54:24.600Z,101146.31
2023-04-03T12:56:53.413Z,101138.45
2023-04-03T12:59:24.951Z,101138.55
2023-04-03T13:01:59.522Z,101138.98
2023-04-03T13:04:29.668Z,101131.48
2023-04-03T13:06:59.585Z,101127.73
2023-04-03T13:09:32.781Z,101122.89
2023-04-03T13:12:10.504Z,101123.96
2023-04-03T13:14:38.989Z,101121.11
2023-04-03T13:17:18.370Z,101121.96
2023-04-03T13:19:47.135Z,101116.08
2023-04-03T13:22:18.518Z,101118.27
2023-04-03T13:24:50.691Z,101119.52
2023-04-03T13:27:19.900Z,101114.00
2023-04-03T13:29:54.996Z,101108.65
2023-04-03T13:32:27.954Z,101108.58
2023-04-03T13:35:08.098Z,101101.83
2023-04-03T13:37:40.744Z,101098.20
2023-04-03T13:40:13.495Z,101099.55
2023-04-03T13:42:43.184Z,101095.66
2023-04-03T13:45:14.279Z,101090.50
2023-04-03T13:47:46.482Z,101083.20
2023-04-03T13:50:24.966Z,101082.84
2023-04-03T13:53:03.264Z,101080.21
2023-04-03T13:55:38.562Z,101073.73
2023-04-03T13:58:13.201Z,101072.63
2023-04-03T14:00:57.861Z,101069.44
2023-04-03T14:03:46.973Z,101065.95
2023-04-03T14:06:17.810Z,101063.17
2023-04-03T14:08:47.429Z,101067.00
2023-04-03T14:11:30.916Z,101057.21
2023-04-03T14:14:03.824Z,101059.20
2023-04-03T14:16:38.584Z,101065.14
2023-04-03T14:19:07.055Z,101064.61
2023-04-03T14:21:35.546Z,101060.81
2023-04-03T14:24:03.932Z,101059.48
2023-04-03T14:26:32.596Z,101055.74
2023-04-03T14:29:01.077Z,101056.45
2023-04-03T14:31:30.484Z,101051.16
2023-04-03T14:33:59.192Z,101050.85
2023-04-03T14:36:29.669Z,101048.72
2023-04-03T14:38:59.081Z,101045.77
2023-04-03T14:41:28.407Z,101047.30
2023-04-03T14:43:56.903Z,101043.79
2023-04-03T14:46:45.533Z,101042.25
2023-04-03T14:49:26.282Z,101035.58
2023-04-03T14:51:55.308Z,101041.03
2023-04-03T14:54:24.457Z,101034.46
2023-04-03T14:56:54.040Z,101032.15
2023-04-03T14:59:23.231Z,101028.58
2023-04-03T15:01:51.538Z,101027.61
2023-04-03T15:04:22.159Z,101022.80
2023-04-03T15:06:53.009Z,101023.90
2023-04-03T15:09:24.529Z,101021.05
2023-04-03T15:11:55.738Z,101018.90
2023-04-03T15:14:36.396Z,101017.54
2023-04-03T15:17:08.147Z,101014.02
2023-04-03T15:19:40.744Z,101009.08
2023-04-03T15:22:15.531Z,101010.77
2023-04-03T15:24:44.946Z,101009.21
2023-04-03T15:27:15.226Z,101008.77
2023-04-03T15:29:45.273Z,101003.70
2023-04-03T15:32:14.404Z,101003.36
2023-04-03T15:34:42.672Z,101003.73
2023-04-03T15:37:10.896Z,101005.33
2023-04-03T15:39:39.330Z,100995.83
2023-04-03T15:42:07.573Z,100995.58
2023-04-03T15:44:36.509Z,100992.17
2023-04-03T15:47:05.705Z,100994.77
2023-04-03T15:49:34.904Z,100992.92
2023-04-03T15:52:03.892Z,100986.25
2023-04-03T15:54:33.805Z,100982.62
2023-04-03T15:57:02.272Z,100986.48
2023-04-03T15:59:30.935Z,100983.09
2023-04-03T16:02:01.799Z,100979.34
2023-04-03T16:04:33.563Z,100982.67
2023-04-03T16:07:03.685Z,100984.98
2023-04-03T16:09:34.203Z,100982.42
2023-04-03T16:12:02.869Z,100984.66
2023-04-03T16:14:31.169Z,100987.34
2023-04-03T16:17:01.423Z,100983.93
2023-04-03T16:19:30.768Z,100981.48
2023-04-03T16:21:59.027Z,100981.89
2023-04-03T16:24:27.350Z,100985.67
2023-04-03T16:26:55.482Z,100987.65
2023-04-03T16:29:23.600Z,100985.69
2023-04-03T16:31:52.482Z,100981.14
2023-04-03T16:34:20.729Z,100984.36
2023-04-03T16:36:49.895Z,100986.19
2023-04-03T16:39:18.472Z,100981.75
2023-04-03T16:41:47.003Z,100986.55
2023-04-03T16:44:15.207Z,100987.92
2023-04-03T16:46:44.467Z,100987.51
2023-04-03T16:49:13.681Z,100986.24
2023-04-03T16:51:41.805Z,100985.48
2023-04-03T16:54:10.543Z,100987.65
2023-04-03T16:56:38.645Z,100991.45
2023-04-03T16:59:07.204Z,100990.42
2023-04-03T17:01:35.550Z,100988.77
2023-04-03T17:04:07.047Z,100986.11
2023-04-03T17:06:35.674Z,100982.64
2023-04-03T17:09:04.004Z,100986.27
2023-04-03T17:11:32.844Z,100976.61
2023-04-03T17:14:01.009Z,100970.56
2023-04-03T17:16:30.890Z,100972.20
2023-04-03T17:18:59.490Z,100967.58
2023-04-03T17:21:27.957Z,100971.64
2023-04-03T17:23:59.946Z,100968.59
2023-04-03T17:26:28.747Z,100973.38
2023-04-03T17:28:56.909Z,100971.23
2023-04-03T17:31:25.111Z,100970.52
2023-04-03T17:33:53.573Z,100970.88
2023-04-03T17:36:21.973Z,100977.13
2023-04-03T17:38:53.379Z,100971.74
2023-04-03T17:41:22.278Z,100969.96
2023-04-03T17:43:50.885Z,100965.66
2023-04-03T17:46:19.310Z,100971.52
2023-04-03T17:48:47.534Z,100971.68
2023-04-03T17:51:20.099Z,100969.55
2023-04-03T17:53:49.411Z,100968.66
2023-04-03T17:56:20.245Z,100973.13
2023-04-03T17:58:49.031Z,100971.33
2023-04-03T18:01:23.755Z,100971.16
2023-04-03T18:03:54.703Z,100974.02
2023-04-03T18:06:28.102Z,100973.49
2023-04-03T18:09:03.705Z,100972.08
2023-04-03T18:11:33.152Z,100966.89
2023-04-03T18:14:04.078Z,100969.74
2023-04-03T18:16:32.413Z,100966.55
2023-04-03T18:19:12.016Z,100971.55
2023-04-03T18:21:49.887Z,100970.66
2023-04-03T18:24:20.997Z,100972.41
2023-04-03T18:26:55.910Z,100969.20
2023-04-03T18:29:24.638Z,100965.38
2023-04-03T18:31:57.153Z,100963.73
2023-04-03T18:34:25.597Z,100961.50
2023-04-03T18:36:53.778Z,100960.55
2023-04-03T18:39:23.992Z,100955.20
2023-04-03T18:41:53.760Z,100954.50
2023-04-03T18:44:25.105Z,100957.91
2023-04-03T18:46:53.943Z,100961.64
2023-04-03T18:49:22.197Z,100967.31
2023-04-03T18:51:50.492Z,100968.91
2023-04-03T18:54:18.919Z,100972.66
2023-04-03T18:56:47.658Z,100977.28
2023-04-03T18:59:15.824Z,100981.35
2023-04-03T19:01:44.320Z,100982.94
2023-04-03T19:04:14.734Z,100980.44
2023-04-03T19:06:43.032Z,100980.98
2023-04-03T19:09:11.431Z,100987.37
2023-04-03T19:11:39.577Z,100987.36
2023-04-03T19:14:15.846Z,100986.48
2023-04-03T19:16:45.370Z,100988.60
2023-04-03T19:19:13.895Z,100994.46
2023-04-03T19:21:42.216Z,100994.48
2023-04-03T19:24:13.090Z,101001.44
2023-04-03T19:26:42.715Z,101003.91
2023-04-03T19:29:11.801Z,101005.68
2023-04-03T19:31:41.046Z,101005.88
2023-04-03T19:34:09.145Z,101007.67
2023-04-03T19:36:37.531Z,101006.41
2023-04-03T19:39:06.387Z,101009.63
2023-04-03T19:41:36.389Z,101015.88
2023-04-03T19:44:06.529Z,101020.34
2023-04-03T19:46:36.540Z,101022.14
2023-04-03T19:49:05.213Z,101020.90
2023-04-03T19:51:33.778Z,101018.94
2023-04-03T19:54:02.234Z,101018.60
2023-04-03T19:56:30.378Z,101018.08
2023-04-03T19:58:58.742Z,101017.18
2023-04-03T20:01:27.077Z,101017.53
2023-04-03T20:03:55.562Z,101020.92
2023-04-03T20:06:24.173Z,101017.36
2023-04-03T20:08:52.795Z,101015.93
2023-04-03T20:11:21.091Z,101017.17
2023-04-03T20:13:51.030Z,101020.02
2023-04-03T20:16:23.062Z,101019.68
2023-04-03T20:18:56.467Z,101022.55
2023-04-03T20:21:32.513Z,101018.80
2023-04-03T20:24:03.867Z,101018.96
2023-04-03T20:26:34.063Z,101016.46
2023-04-03T20:29:02.560Z,101017.89
2023-04-03T20:31:33.031Z,101016.67
2023-04-03T20:34:01.564Z,101016.14
2023-04-03T20:36:29.807Z,101015.23
2023-04-03T20:38:58.279Z,101014.88
2023-04-03T20:41:26.762Z,101012.56
2023-04-03T20:43:55.077Z,101016.11
2023-04-03T20:46:23.457Z,101015.57
2023-04-03T20:48:51.545Z,101014.15
2023-04-03T20:51:20.587Z,101015.04
2023-04-03T20:53:49.523Z,101010.04
2023-04-03T20:56:18.345Z,101008.60
2023-04-03T20:58:46.596Z,101008.39
2023-04-03T21:01:23.595Z,101006.78
2023-04-03T21:03:56.741Z,101003.55
2023-04-03T21:07:02.810Z,101000.73
2023-04-03T21:10:08.899Z,101002.49
2023-04-03T21:13:15.570Z,100995.02
2023-04-03T21:15:46.666Z,100997.84
2023-04-03T21:18:48.404Z,100995.88
2023-04-03T21:21:24.734Z,100985.35
2023-04-03T21:23:54.731Z,100986.60
2023-04-03T21:26:27.010Z,100987.11
2023-04-03T21:28:55.411Z,100987.27
2023-04-03T21:31:24.453Z,100990.83
2023-04-03T21:33:52.702Z,100988.33
2023-04-03T21:36:21.055Z,100987.79
2023-04-03T21:38:49.555Z,100987.95
2023-04-03T21:41:18.246Z,100983.13
2023-04-03T21:43:46.543Z,100986.51
2023-04-03T21:46:15.011Z,100989.51
2023-04-03T21:48:43.243Z,100991.45
2023-04-03T21:51:11.419Z,100992.85
2023-04-03T21:53:39.676Z,100993.55
2023-04-03T21:56:08.021Z,100989.81
2023-04-03T21:58:36.558Z,100988.90
2023-04-03T22:01:13.208Z,100984.43
2023-04-03T22:03:43.317Z,100986.55
2023-04-03T22:06:15.109Z,100988.48
2023-04-03T22:08:46.454Z,100989.36
2023-04-03T22:11:16.082Z,100985.23
2023-04-03T22:13:45.391Z,100982.91
2023-04-03T22:16:13.642Z,100979.31
2023-04-03T22:18:42.350Z,100981.41
2023-04-03T22:21:10.716Z,100982.65
2023-04-03T22:23:38.947Z,100982.80
2023-04-03T22:26:09.543Z,100981.69
2023-04-03T22:28:41.879Z,100977.92
2023-04-03T22:31:10.414Z,100975.21
2023-04-03T22:33:40.202Z,100975.31
2023-04-03T22:36:10.597Z,100977.08
2023-04-03T22:38:39.953Z,100978.84
2023-04-03T22:41:08.294Z,100974.02
2023-04-03T22:43:38.233Z,100975.94
2023-04-03T22:46:08.831Z,100973.41
2023-04-03T22:48:38.020Z,100976.95
2023-04-03T22:51:06.839Z,100976.71
2023-04-03T22:53:35.670Z,100974.00
2023-04-03T22:56:07.062Z,100966.84
2023-04-03T22:58:35.177Z,100971.95
2023-04-03T23:01:14.525Z,100971.20
2023-04-03T23:03:43.293Z,100972.39
2023-04-03T23:06:11.432Z,100974.46
2023-04-03T23:08:39.697Z,100968.73
2023-04-03T23:11:08.681Z,100962.12
2023-04-03T23:13:37.797Z,100966.33
2023-04-03T23:16:07.017Z,100960.80
2023-04-03T23:18:35.355Z,100958.30
2023-04-03T23:21:03.910Z,100952.38
2023-04-03T23:23:32.922Z,100953.23
2023-04-03T23:26:02.003Z,100953.55
2023-04-03T23:28:31.093Z,100956.18
2023-04-03T23:31:00.764Z,100954.04
2023-04-03T23:33:30.692Z,100954.74
2023-04-03T23:36:01.165Z,100955.45
2023-04-03T23:38:29.604Z,100948.52
2023-04-03T23:40:57.832Z,100945.26
2023-04-03T23:43:26.282Z,100939.70
2023-04-03T23:45:55.211Z,100937.34
2023-04-03T23:48:23.380Z,100932.20
2023-04-03T23:50:51.676Z,100929.84
2023-04-03T23:53:19.751Z,100927.50
2023-04-03T23:55:48.124Z,100925.16
2023-04-03T23:58:16.419Z,100921.95
